sensor_id;sensor_type;location;lat;lon;timestamp;P1;durP1;ratioP1;P2;durP2;ratioP2
21780;SDS011;52576;53.614;9.894;2023-02-01T00:00:49;33.92;;;5.85;;
21780;SDS011;52576;53.614;9.894;2023-02-01T00:02:54;27.33;;;4.65;;
21780;SDS011;52576;53.614;9.894;2023-02-01T00:04:57;36.13;;;5.82;;
21780;SDS011;52576;53.614;9.894;2023-02-01T00:07:00;31.13;;;4.72;;
21780;SDS011;52576;53.614;9.894;2023-02-01T00:09:03;37.80;;;5.20;;
21780;SDS011;52576;53.614;9.894;2023-02-01T00:11:07;31.83;;;5.68;;
21780;SDS011;52576;53.614;9.894;2023-02-01T00:13:12;37.15;;;4.95;;
21780;SDS011;52576;53.614;9.894;2023-02-01T00:15:15;36.80;;;5.07;;
21780;SDS011;52576;53.614;9.894;2023-02-01T00:17:18;33.45;;;5.45;;
21780;SDS011;52576;53.614;9.894;2023-02-01T00:19:23;30.38;;;5.25;;
21780;SDS011;52576;53.614;9.894;2023-02-01T00:21:27;35.67;;;5.50;;
21780;SDS011;52576;53.614;9.894;2023-02-01T00:23:31;39.15;;;5.95;;
21780;SDS011;52576;53.614;9.894;2023-02-01T00:25:35;41.85;;;5.95;;
21780;SDS011;52576;53.614;9.894;2023-02-01T00:27:39;38.95;;;5.60;;
21780;SDS011;52576;53.614;9.894;2023-02-01T00:29:42;32.80;;;5.10;;
21780;SDS011;52576;53.614;9.894;2023-02-01T00:31:45;31.65;;;4.90;;
21780;SDS011;52576;53.614;9.894;2023-02-01T00:33:49;30.52;;;5.15;;
21780;SDS011;52576;53.614;9.894;2023-02-01T00:35:56;39.08;;;4.78;;
21780;SDS011;52576;53.614;9.894;2023-02-01T00:38:01;38.20;;;5.82;;
21780;SDS011;52576;53.614;9.894;2023-02-01T00:40:05;34.28;;;4.70;;
21780;SDS011;52576;53.614;9.894;2023-02-01T00:42:09;32.90;;;5.85;;
21780;SDS011;52576;53.614;9.894;2023-02-01T00:44:12;37.03;;;5.25;;
21780;SDS011;52576;53.614;9.894;2023-02-01T00:46:16;44.22;;;5.60;;
21780;SDS011;52576;53.614;9.894;2023-02-01T00:48:20;43.78;;;5.70;;
21780;SDS011;52576;53.614;9.894;2023-02-01T00:50:23;44.63;;;6.05;;
21780;SDS011;52576;53.614;9.894;2023-02-01T00:52:28;35.65;;;5.53;;
21780;SDS011;52576;53.614;9.894;2023-02-01T00:54:31;44.22;;;6.47;;
21780;SDS011;52576;53.614;9.894;2023-02-01T00:56:36;45.35;;;5.90;;
21780;SDS011;52576;53.614;9.894;2023-02-01T00:58:39;37.50;;;6.10;;
21780;SDS011;52576;53.614;9.894;2023-02-01T01:00:46;39.13;;;5.85;;
21780;SDS011;52576;53.614;9.894;2023-02-01T01:02:51;46.30;;;6.68;;
21780;SDS011;52576;53.614;9.894;2023-02-01T01:04:54;51.95;;;6.97;;
21780;SDS011;52576;53.614;9.894;2023-02-01T01:06:57;42.00;;;6.40;;
21780;SDS011;52576;53.614;9.894;2023-02-01T01:09:03;41.97;;;6.03;;
21780;SDS011;52576;53.614;9.894;2023-02-01T01:11:07;42.15;;;6.10;;
21780;SDS011;52576;53.614;9.894;2023-02-01T01:13:12;39.65;;;6.32;;
21780;SDS011;52576;53.614;9.894;2023-02-01T01:15:15;36.58;;;6.13;;
21780;SDS011;52576;53.614;9.894;2023-02-01T01:17:18;40.10;;;6.20;;
21780;SDS011;52576;53.614;9.894;2023-02-01T01:19:21;47.58;;;6.78;;
21780;SDS011;52576;53.614;9.894;2023-02-01T01:21:24;43.75;;;7.10;;
21780;SDS011;52576;53.614;9.894;2023-02-01T01:23:28;45.78;;;5.65;;
21780;SDS011;52576;53.614;9.894;2023-02-01T01:25:36;43.25;;;5.45;;
21780;SDS011;52576;53.614;9.894;2023-02-01T01:27:40;41.38;;;6.18;;
21780;SDS011;52576;53.614;9.894;2023-02-01T01:29:43;44.08;;;6.18;;
21780;SDS011;52576;53.614;9.894;2023-02-01T01:31:46;41.38;;;6.10;;
21780;SDS011;52576;53.614;9.894;2023-02-01T01:33:50;41.22;;;6.55;;
21780;SDS011;52576;53.614;9.894;2023-02-01T01:35:54;35.78;;;5.85;;
21780;SDS011;52576;53.614;9.894;2023-02-01T01:37:58;43.08;;;6.15;;
21780;SDS011;52576;53.614;9.894;2023-02-01T01:40:02;39.30;;;6.10;;
21780;SDS011;52576;53.614;9.894;2023-02-01T01:42:09;46.28;;;6.25;;
21780;SDS011;52576;53.614;9.894;2023-02-01T01:46:54;46.22;;;6.78;;
21780;SDS011;52576;53.614;9.894;2023-02-01T01:49:00;52.03;;;6.57;;
21780;SDS011;52576;53.614;9.894;2023-02-01T01:51:07;44.45;;;6.15;;
21780;SDS011;52576;53.614;9.894;2023-02-01T01:53:16;44.65;;;6.78;;
21780;SDS011;52576;53.614;9.894;2023-02-01T01:55:22;50.53;;;6.55;;
21780;SDS011;52576;53.614;9.894;2023-02-01T01:57:30;46.33;;;6.55;;
21780;SDS011;52576;53.614;9.894;2023-02-01T01:59:38;44.72;;;6.15;;
21780;SDS011;52576;53.614;9.894;2023-02-01T02:01:45;54.28;;;6.30;;
21780;SDS011;52576;53.614;9.894;2023-02-01T02:03:48;51.70;;;6.60;;
21780;SDS011;52576;53.614;9.894;2023-02-01T02:05:53;48.55;;;6.65;;
21780;SDS011;52576;53.614;9.894;2023-02-01T02:08:00;52.35;;;7.95;;
21780;SDS011;52576;53.614;9.894;2023-02-01T02:10:04;40.67;;;6.00;;
21780;SDS011;52576;53.614;9.894;2023-02-01T02:12:08;42.67;;;6.60;;
21780;SDS011;52576;53.614;9.894;2023-02-01T02:14:13;46.25;;;6.22;;
21780;SDS011;52576;53.614;9.894;2023-02-01T02:16:23;45.47;;;6.22;;
21780;SDS011;52576;53.614;9.894;2023-02-01T02:18:42;42.07;;;6.30;;
21780;SDS011;52576;53.614;9.894;2023-02-01T02:20:52;44.70;;;6.07;;
21780;SDS011;52576;53.614;9.894;2023-02-01T02:23:35;46.35;;;6.53;;
21780;SDS011;52576;53.614;9.894;2023-02-01T02:28:51;47.35;;;7.05;;
21780;SDS011;52576;53.614;9.894;2023-02-01T02:31:22;38.08;;;5.50;;
21780;SDS011;52576;53.614;9.894;2023-02-01T02:33:47;43.65;;;6.45;;
21780;SDS011;52576;53.614;9.894;2023-02-01T02:36:01;43.92;;;6.00;;
21780;SDS011;52576;53.614;9.894;2023-02-01T02:38:12;41.42;;;6.35;;
21780;SDS011;52576;53.614;9.894;2023-02-01T02:40:22;41.83;;;6.45;;
21780;SDS011;52576;53.614;9.894;2023-02-01T02:42:37;41.60;;;6.25;;
21780;SDS011;52576;53.614;9.894;2023-02-01T02:45:02;37.55;;;5.80;;
21780;SDS011;52576;53.614;9.894;2023-02-01T02:47:30;46.72;;;5.93;;
21780;SDS011;52576;53.614;9.894;2023-02-01T02:49:41;48.50;;;6.90;;
21780;SDS011;52576;53.614;9.894;2023-02-01T02:52:10;46.90;;;7.18;;
21780;SDS011;52576;53.614;9.894;2023-02-01T02:54:33;45.28;;;5.93;;
21780;SDS011;52576;53.614;9.894;2023-02-01T02:56:50;41.38;;;5.93;;
21780;SDS011;52576;53.614;9.894;2023-02-01T02:59:15;44.60;;;6.72;;
21780;SDS011;52576;53.614;9.894;2023-02-01T03:01:40;35.85;;;5.97;;
21780;SDS011;52576;53.614;9.894;2023-02-01T03:04:02;50.83;;;5.72;;
21780;SDS011;52576;53.614;9.894;2023-02-01T03:06:15;54.87;;;6.83;;
21780;SDS011;52576;53.614;9.894;2023-02-01T03:08:22;39.38;;;5.80;;
21780;SDS011;52576;53.614;9.894;2023-02-01T03:10:30;51.33;;;6.82;;
21780;SDS011;52576;53.614;9.894;2023-02-01T03:12:40;46.60;;;6.10;;
21780;SDS011;52576;53.614;9.894;2023-02-01T03:14:57;47.38;;;6.18;;
21780;SDS011;52576;53.614;9.894;2023-02-01T03:17:07;46.60;;;6.00;;
21780;SDS011;52576;53.614;9.894;2023-02-01T03:19:15;53.13;;;6.55;;
21780;SDS011;52576;53.614;9.894;2023-02-01T03:21:24;51.85;;;5.93;;
21780;SDS011;52576;53.614;9.894;2023-02-01T03:23:31;43.20;;;5.50;;
21780;SDS011;52576;53.614;9.894;2023-02-01T03:25:37;40.97;;;6.05;;
21780;SDS011;52576;53.614;9.894;2023-02-01T03:27:42;35.67;;;5.32;;
21780;SDS011;52576;53.614;9.894;2023-02-01T03:29:52;33.70;;;4.25;;
21780;SDS011;52576;53.614;9.894;2023-02-01T03:32:01;33.13;;;4.57;;
21780;SDS011;52576;53.614;9.894;2023-02-01T03:34:05;24.63;;;4.00;;
21780;SDS011;52576;53.614;9.894;2023-02-01T03:36:11;29.52;;;4.20;;
21780;SDS011;52576;53.614;9.894;2023-02-01T03:38:20;28.38;;;4.10;;
21780;SDS011;52576;53.614;9.894;2023-02-01T03:40:27;28.83;;;4.32;;
21780;SDS011;52576;53.614;9.894;2023-02-01T03:42:37;24.20;;;3.40;;
21780;SDS011;52576;53.614;9.894;2023-02-01T03:44:45;26.80;;;3.65;;
21780;SDS011;52576;53.614;9.894;2023-02-01T03:46:52;29.63;;;4.43;;
21780;SDS011;52576;53.614;9.894;2023-02-01T03:48:59;32.72;;;4.43;;
21780;SDS011;52576;53.614;9.894;2023-02-01T03:51:06;23.45;;;4.40;;
21780;SDS011;52576;53.614;9.894;2023-02-01T03:53:11;32.95;;;4.72;;
21780;SDS011;52576;53.614;9.894;2023-02-01T03:55:21;37.25;;;5.00;;
21780;SDS011;52576;53.614;9.894;2023-02-01T03:57:26;30.15;;;4.38;;
21780;SDS011;52576;53.614;9.894;2023-02-01T03:59:34;33.33;;;5.03;;
21780;SDS011;52576;53.614;9.894;2023-02-01T04:01:41;34.20;;;4.50;;
21780;SDS011;52576;53.614;9.894;2023-02-01T04:03:45;32.85;;;4.80;;
21780;SDS011;52576;53.614;9.894;2023-02-01T04:05:48;32.78;;;4.85;;
21780;SDS011;52576;53.614;9.894;2023-02-01T04:07:52;28.85;;;4.38;;
21780;SDS011;52576;53.614;9.894;2023-02-01T04:09:55;28.90;;;4.95;;
21780;SDS011;52576;53.614;9.894;2023-02-01T04:12:00;33.20;;;5.07;;
21780;SDS011;52576;53.614;9.894;2023-02-01T04:14:03;35.45;;;4.97;;
21780;SDS011;52576;53.614;9.894;2023-02-01T04:16:07;35.75;;;4.75;;
21780;SDS011;52576;53.614;9.894;2023-02-01T04:18:10;38.50;;;5.20;;
21780;SDS011;52576;53.614;9.894;2023-02-01T04:20:13;37.05;;;5.72;;
21780;SDS011;52576;53.614;9.894;2023-02-01T04:22:16;30.65;;;4.40;;
21780;SDS011;52576;53.614;9.894;2023-02-01T04:24:19;29.55;;;4.03;;
21780;SDS011;52576;53.614;9.894;2023-02-01T04:26:22;35.88;;;4.90;;
21780;SDS011;52576;53.614;9.894;2023-02-01T04:28:27;28.60;;;4.95;;
21780;SDS011;52576;53.614;9.894;2023-02-01T04:30:30;28.10;;;4.10;;
21780;SDS011;52576;53.614;9.894;2023-02-01T04:32:33;28.67;;;4.22;;
21780;SDS011;52576;53.614;9.894;2023-02-01T04:34:36;25.33;;;3.90;;
21780;SDS011;52576;53.614;9.894;2023-02-01T04:36:39;22.23;;;3.90;;
21780;SDS011;52576;53.614;9.894;2023-02-01T04:38:42;25.42;;;3.00;;
21780;SDS011;52576;53.614;9.894;2023-02-01T04:40:46;23.10;;;2.83;;
21780;SDS011;52576;53.614;9.894;2023-02-01T04:42:50;23.17;;;3.35;;
21780;SDS011;52576;53.614;9.894;2023-02-01T04:44:55;29.45;;;3.50;;
21780;SDS011;52576;53.614;9.894;2023-02-01T04:46:58;19.50;;;3.40;;
21780;SDS011;52576;53.614;9.894;2023-02-01T04:49:01;16.92;;;2.88;;
21780;SDS011;52576;53.614;9.894;2023-02-01T04:51:04;18.10;;;3.40;;
21780;SDS011;52576;53.614;9.894;2023-02-01T04:53:08;22.08;;;3.08;;
21780;SDS011;52576;53.614;9.894;2023-02-01T04:55:11;17.35;;;2.67;;
21780;SDS011;52576;53.614;9.894;2023-02-01T04:57:15;21.27;;;2.83;;
21780;SDS011;52576;53.614;9.894;2023-02-01T04:59:18;28.70;;;3.17;;
21780;SDS011;52576;53.614;9.894;2023-02-01T05:01:22;16.55;;;2.30;;
21780;SDS011;52576;53.614;9.894;2023-02-01T05:03:26;14.98;;;2.85;;
21780;SDS011;52576;53.614;9.894;2023-02-01T05:05:30;10.25;;;1.90;;
21780;SDS011;52576;53.614;9.894;2023-02-01T05:07:33;9.20;;;1.77;;
21780;SDS011;52576;53.614;9.894;2023-02-01T05:09:36;11.45;;;1.83;;
21780;SDS011;52576;53.614;9.894;2023-02-01T05:11:39;8.93;;;1.25;;
21780;SDS011;52576;53.614;9.894;2023-02-01T05:13:59;8.02;;;1.30;;
21780;SDS011;52576;53.614;9.894;2023-02-01T05:16:03;8.07;;;1.27;;
21780;SDS011;52576;53.614;9.894;2023-02-01T05:18:08;3.70;;;1.05;;
21780;SDS011;52576;53.614;9.894;2023-02-01T05:20:11;9.35;;;1.25;;
21780;SDS011;52576;53.614;9.894;2023-02-01T05:22:14;6.97;;;1.10;;
21780;SDS011;52576;53.614;9.894;2023-02-01T05:24:17;4.32;;;0.77;;
21780;SDS011;52576;53.614;9.894;2023-02-01T05:26:22;4.28;;;1.30;;
21780;SDS011;52576;53.614;9.894;2023-02-01T05:28:25;6.93;;;0.90;;
21780;SDS011;52576;53.614;9.894;2023-02-01T05:30:28;5.18;;;1.10;;
21780;SDS011;52576;53.614;9.894;2023-02-01T05:32:32;4.35;;;0.95;;
21780;SDS011;52576;53.614;9.894;2023-02-01T05:34:36;3.65;;;1.05;;
21780;SDS011;52576;53.614;9.894;2023-02-01T05:36:40;5.00;;;1.10;;
21780;SDS011;52576;53.614;9.894;2023-02-01T05:38:43;6.35;;;0.90;;
21780;SDS011;52576;53.614;9.894;2023-02-01T05:40:46;5.05;;;0.90;;
21780;SDS011;52576;53.614;9.894;2023-02-01T05:42:51;5.40;;;1.00;;
21780;SDS011;52576;53.614;9.894;2023-02-01T05:44:54;5.50;;;1.02;;
21780;SDS011;52576;53.614;9.894;2023-02-01T05:46:57;5.85;;;0.90;;
21780;SDS011;52576;53.614;9.894;2023-02-01T05:49:00;4.90;;;1.00;;
21780;SDS011;52576;53.614;9.894;2023-02-01T05:51:05;4.28;;;0.80;;
21780;SDS011;52576;53.614;9.894;2023-02-01T05:53:08;5.88;;;0.80;;
21780;SDS011;52576;53.614;9.894;2023-02-01T05:55:11;4.57;;;0.90;;
21780;SDS011;52576;53.614;9.894;2023-02-01T05:57:15;3.20;;;0.90;;
21780;SDS011;52576;53.614;9.894;2023-02-01T05:59:18;2.92;;;0.77;;
21780;SDS011;52576;53.614;9.894;2023-02-01T06:01:21;4.78;;;0.70;;
21780;SDS011;52576;53.614;9.894;2023-02-01T06:03:24;3.63;;;0.70;;
21780;SDS011;52576;53.614;9.894;2023-02-01T06:05:28;3.85;;;0.98;;
21780;SDS011;52576;53.614;9.894;2023-02-01T06:07:32;3.65;;;0.90;;
21780;SDS011;52576;53.614;9.894;2023-02-01T06:09:35;4.07;;;0.90;;
21780;SDS011;52576;53.614;9.894;2023-02-01T06:11:39;5.95;;;0.90;;
21780;SDS011;52576;53.614;9.894;2023-02-01T06:13:42;7.35;;;1.20;;
21780;SDS011;52576;53.614;9.894;2023-02-01T06:15:45;6.28;;;1.02;;
21780;SDS011;52576;53.614;9.894;2023-02-01T06:17:49;7.70;;;1.17;;
21780;SDS011;52576;53.614;9.894;2023-02-01T06:19:52;9.32;;;1.90;;
21780;SDS011;52576;53.614;9.894;2023-02-01T06:21:55;9.85;;;1.70;;
21780;SDS011;52576;53.614;9.894;2023-02-01T06:24:00;13.43;;;1.40;;
21780;SDS011;52576;53.614;9.894;2023-02-01T06:26:04;11.75;;;1.60;;
21780;SDS011;52576;53.614;9.894;2023-02-01T06:28:09;6.20;;;1.15;;
21780;SDS011;52576;53.614;9.894;2023-02-01T06:30:12;18.75;;;2.03;;
21780;SDS011;52576;53.614;9.894;2023-02-01T06:32:17;9.95;;;1.75;;
21780;SDS011;52576;53.614;9.894;2023-02-01T06:34:20;16.95;;;2.45;;
21780;SDS011;52576;53.614;9.894;2023-02-01T06:36:25;18.08;;;2.58;;
21780;SDS011;52576;53.614;9.894;2023-02-01T06:38:28;13.13;;;2.10;;
21780;SDS011;52576;53.614;9.894;2023-02-01T06:40:33;13.60;;;2.13;;
21780;SDS011;52576;53.614;9.894;2023-02-01T06:42:36;17.88;;;2.85;;
21780;SDS011;52576;53.614;9.894;2023-02-01T06:44:40;21.15;;;2.65;;
21780;SDS011;52576;53.614;9.894;2023-02-01T06:46:43;16.45;;;2.92;;
21780;SDS011;52576;53.614;9.894;2023-02-01T06:48:46;22.50;;;3.00;;
21780;SDS011;52576;53.614;9.894;2023-02-01T06:50:50;17.42;;;3.05;;
21780;SDS011;52576;53.614;9.894;2023-02-01T06:52:53;23.30;;;3.25;;
21780;SDS011;52576;53.614;9.894;2023-02-01T06:54:57;22.80;;;2.88;;
21780;SDS011;52576;53.614;9.894;2023-02-01T06:57:02;28.23;;;3.38;;
21780;SDS011;52576;53.614;9.894;2023-02-01T06:59:05;23.42;;;3.38;;
21780;SDS011;52576;53.614;9.894;2023-02-01T07:01:09;25.23;;;3.47;;
21780;SDS011;52576;53.614;9.894;2023-02-01T07:03:13;29.15;;;3.22;;
21780;SDS011;52576;53.614;9.894;2023-02-01T07:05:16;32.80;;;4.40;;
21780;SDS011;52576;53.614;9.894;2023-02-01T07:07:19;22.50;;;3.40;;
21780;SDS011;52576;53.614;9.894;2023-02-01T07:09:24;28.70;;;3.72;;
21780;SDS011;52576;53.614;9.894;2023-02-01T07:11:27;21.08;;;2.90;;
21780;SDS011;52576;53.614;9.894;2023-02-01T07:13:31;30.20;;;3.50;;
21780;SDS011;52576;53.614;9.894;2023-02-01T07:15:34;23.50;;;3.28;;
21780;SDS011;52576;53.614;9.894;2023-02-01T07:17:37;34.03;;;4.38;;
21780;SDS011;52576;53.614;9.894;2023-02-01T07:19:40;32.40;;;4.57;;
21780;SDS011;52576;53.614;9.894;2023-02-01T07:21:43;27.83;;;3.72;;
21780;SDS011;52576;53.614;9.894;2023-02-01T07:23:47;33.80;;;3.90;;
21780;SDS011;52576;53.614;9.894;2023-02-01T07:25:52;44.28;;;4.00;;
21780;SDS011;52576;53.614;9.894;2023-02-01T07:27:56;41.22;;;4.80;;
21780;SDS011;52576;53.614;9.894;2023-02-01T07:30:01;25.27;;;3.28;;
21780;SDS011;52576;53.614;9.894;2023-02-01T07:32:04;22.85;;;3.60;;
21780;SDS011;52576;53.614;9.894;2023-02-01T07:34:07;27.58;;;4.32;;
21780;SDS011;52576;53.614;9.894;2023-02-01T07:36:11;34.78;;;3.80;;
21780;SDS011;52576;53.614;9.894;2023-02-01T07:38:15;40.55;;;4.18;;
21780;SDS011;52576;53.614;9.894;2023-02-01T07:40:19;33.28;;;4.53;;
21780;SDS011;52576;53.614;9.894;2023-02-01T07:42:26;38.95;;;5.20;;
21780;SDS011;52576;53.614;9.894;2023-02-01T07:44:29;42.17;;;5.13;;
21780;SDS011;52576;53.614;9.894;2023-02-01T07:46:34;47.08;;;5.47;;
21780;SDS011;52576;53.614;9.894;2023-02-01T07:48:37;42.33;;;5.25;;
21780;SDS011;52576;53.614;9.894;2023-02-01T07:50:41;48.97;;;6.28;;
21780;SDS011;52576;53.614;9.894;2023-02-01T07:52:44;46.05;;;5.97;;
21780;SDS011;52576;53.614;9.894;2023-02-01T07:54:47;59.85;;;6.85;;
21780;SDS011;52576;53.614;9.894;2023-02-01T07:56:50;41.38;;;5.85;;
21780;SDS011;52576;53.614;9.894;2023-02-01T07:58:53;44.67;;;6.13;;
21780;SDS011;52576;53.614;9.894;2023-02-01T08:00:57;47.17;;;6.40;;
21780;SDS011;52576;53.614;9.894;2023-02-01T08:03:19;47.50;;;6.15;;
21780;SDS011;52576;53.614;9.894;2023-02-01T08:05:22;42.35;;;5.53;;
21780;SDS011;52576;53.614;9.894;2023-02-01T08:07:25;38.13;;;5.40;;
21780;SDS011;52576;53.614;9.894;2023-02-01T08:09:28;48.75;;;5.88;;
21780;SDS011;52576;53.614;9.894;2023-02-01T08:11:32;47.15;;;5.53;;
21780;SDS011;52576;53.614;9.894;2023-02-01T08:13:38;44.40;;;5.63;;
21780;SDS011;52576;53.614;9.894;2023-02-01T08:15:41;36.85;;;5.45;;
21780;SDS011;52576;53.614;9.894;2023-02-01T08:17:47;46.70;;;5.47;;
21780;SDS011;52576;53.614;9.894;2023-02-01T08:19:52;48.03;;;6.32;;
21780;SDS011;52576;53.614;9.894;2023-02-01T08:21:55;47.50;;;5.82;;
21780;SDS011;52576;53.614;9.894;2023-02-01T08:24:00;39.40;;;5.40;;
21780;SDS011;52576;53.614;9.894;2023-02-01T08:26:05;45.40;;;5.60;;
21780;SDS011;52576;53.614;9.894;2023-02-01T08:28:12;46.65;;;5.75;;
21780;SDS011;52576;53.614;9.894;2023-02-01T08:30:16;43.50;;;5.20;;
21780;SDS011;52576;53.614;9.894;2023-02-01T08:32:19;44.33;;;5.55;;
21780;SDS011;52576;53.614;9.894;2023-02-01T08:34:23;34.67;;;4.60;;
21780;SDS011;52576;53.614;9.894;2023-02-01T08:36:28;29.00;;;3.58;;
21780;SDS011;52576;53.614;9.894;2023-02-01T08:38:34;23.17;;;3.53;;
21780;SDS011;52576;53.614;9.894;2023-02-01T08:40:37;27.10;;;3.90;;
21780;SDS011;52576;53.614;9.894;2023-02-01T08:42:42;28.35;;;3.42;;
21780;SDS011;52576;53.614;9.894;2023-02-01T08:44:55;26.35;;;3.65;;
21780;SDS011;52576;53.614;9.894;2023-02-01T08:46:58;25.08;;;4.28;;
21780;SDS011;52576;53.614;9.894;2023-02-01T08:49:02;21.15;;;3.47;;
21780;SDS011;52576;53.614;9.894;2023-02-01T08:51:06;28.75;;;3.45;;
21780;SDS011;52576;53.614;9.894;2023-02-01T08:53:12;24.90;;;3.75;;
21780;SDS011;52576;53.614;9.894;2023-02-01T08:55:16;25.42;;;3.88;;
21780;SDS011;52576;53.614;9.894;2023-02-01T08:57:19;37.22;;;4.53;;
21780;SDS011;52576;53.614;9.894;2023-02-01T08:59:23;34.22;;;4.18;;
21780;SDS011;52576;53.614;9.894;2023-02-01T09:01:34;34.42;;;4.20;;
21780;SDS011;52576;53.614;9.894;2023-02-01T09:03:42;34.55;;;4.82;;
21780;SDS011;52576;53.614;9.894;2023-02-01T09:05:46;37.75;;;5.00;;
21780;SDS011;52576;53.614;9.894;2023-02-01T09:07:58;41.00;;;5.05;;
21780;SDS011;52576;53.614;9.894;2023-02-01T09:10:04;29.88;;;4.50;;
21780;SDS011;52576;53.614;9.894;2023-02-01T09:12:08;35.90;;;4.82;;
21780;SDS011;52576;53.614;9.894;2023-02-01T09:14:11;44.60;;;5.63;;
21780;SDS011;52576;53.614;9.894;2023-02-01T09:16:15;35.90;;;4.75;;
21780;SDS011;52576;53.614;9.894;2023-02-01T09:18:18;41.33;;;5.35;;
21780;SDS011;52576;53.614;9.894;2023-02-01T09:20:21;38.83;;;5.65;;
21780;SDS011;52576;53.614;9.894;2023-02-01T09:22:26;44.45;;;5.35;;
21780;SDS011;52576;53.614;9.894;2023-02-01T09:24:29;34.20;;;4.57;;
21780;SDS011;52576;53.614;9.894;2023-02-01T09:26:34;39.03;;;5.00;;
21780;SDS011;52576;53.614;9.894;2023-02-01T09:28:37;34.72;;;4.32;;
21780;SDS011;52576;53.614;9.894;2023-02-01T09:30:40;31.45;;;4.63;;
21780;SDS011;52576;53.614;9.894;2023-02-01T09:32:43;29.25;;;4.57;;
21780;SDS011;52576;53.614;9.894;2023-02-01T09:34:46;42.30;;;5.55;;
21780;SDS011;52576;53.614;9.894;2023-02-01T09:36:51;31.17;;;4.90;;
21780;SDS011;52576;53.614;9.894;2023-02-01T09:38:54;39.67;;;4.95;;
21780;SDS011;52576;53.614;9.894;2023-02-01T09:40:58;38.20;;;5.22;;
21780;SDS011;52576;53.614;9.894;2023-02-01T09:43:11;40.22;;;5.72;;
21780;SDS011;52576;53.614;9.894;2023-02-01T09:45:24;33.97;;;4.55;;
21780;SDS011;52576;53.614;9.894;2023-02-01T09:47:35;34.78;;;4.63;;
21780;SDS011;52576;53.614;9.894;2023-02-01T09:49:46;33.65;;;4.78;;
21780;SDS011;52576;53.614;9.894;2023-02-01T09:51:55;33.63;;;4.72;;
21780;SDS011;52576;53.614;9.894;2023-02-01T09:53:59;24.52;;;4.10;;
21780;SDS011;52576;53.614;9.894;2023-02-01T09:56:07;28.98;;;4.85;;
21780;SDS011;52576;53.614;9.894;2023-02-01T09:58:17;36.40;;;4.82;;
21780;SDS011;52576;53.614;9.894;2023-02-01T10:00:25;36.03;;;5.10;;
21780;SDS011;52576;53.614;9.894;2023-02-01T10:02:32;40.75;;;5.15;;
21780;SDS011;52576;53.614;9.894;2023-02-01T10:04:41;33.92;;;6.18;;
21780;SDS011;52576;53.614;9.894;2023-02-01T10:06:48;31.98;;;4.85;;
21780;SDS011;52576;53.614;9.894;2023-02-01T10:09:09;43.55;;;10.18;;
21780;SDS011;52576;53.614;9.894;2023-02-01T10:11:26;35.40;;;4.43;;
21780;SDS011;52576;53.614;9.894;2023-02-01T10:13:53;45.17;;;5.43;;
21780;SDS011;52576;53.614;9.894;2023-02-01T10:16:05;27.55;;;4.18;;
21780;SDS011;52576;53.614;9.894;2023-02-01T10:18:37;32.05;;;5.35;;
21780;SDS011;52576;53.614;9.894;2023-02-01T10:20:56;32.50;;;4.65;;
21780;SDS011;52576;53.614;9.894;2023-02-01T10:23:06;38.40;;;4.90;;
21780;SDS011;52576;53.614;9.894;2023-02-01T10:25:35;34.53;;;4.60;;
21780;SDS011;52576;53.614;9.894;2023-02-01T10:27:41;32.35;;;4.90;;
21780;SDS011;52576;53.614;9.894;2023-02-01T10:29:46;41.95;;;5.80;;
21780;SDS011;52576;53.614;9.894;2023-02-01T10:31:52;33.65;;;4.80;;
21780;SDS011;52576;53.614;9.894;2023-02-01T10:33:56;28.33;;;4.80;;
21780;SDS011;52576;53.614;9.894;2023-02-01T10:36:01;27.20;;;4.45;;
21780;SDS011;52576;53.614;9.894;2023-02-01T10:38:16;24.92;;;4.43;;
21780;SDS011;52576;53.614;9.894;2023-02-01T10:40:24;29.40;;;4.30;;
21780;SDS011;52576;53.614;9.894;2023-02-01T10:42:28;35.35;;;4.95;;
21780;SDS011;52576;53.614;9.894;2023-02-01T10:44:33;31.58;;;5.22;;
21780;SDS011;52576;53.614;9.894;2023-02-01T10:46:45;35.45;;;4.57;;
21780;SDS011;52576;53.614;9.894;2023-02-01T10:48:49;36.60;;;5.85;;
21780;SDS011;52576;53.614;9.894;2023-02-01T10:50:56;40.00;;;4.70;;
21780;SDS011;52576;53.614;9.894;2023-02-01T10:53:03;46.70;;;5.40;;
21780;SDS011;52576;53.614;9.894;2023-02-01T10:55:27;35.50;;;4.60;;
21780;SDS011;52576;53.614;9.894;2023-02-01T10:57:41;34.03;;;4.47;;
21780;SDS011;52576;53.614;9.894;2023-02-01T10:59:44;37.92;;;6.05;;
21780;SDS011;52576;53.614;9.894;2023-02-01T11:01:49;56.83;;;17.55;;
21780;SDS011;52576;53.614;9.894;2023-02-01T11:04:01;37.80;;;5.32;;
21780;SDS011;52576;53.614;9.894;2023-02-01T11:06:10;41.72;;;9.27;;
21780;SDS011;52576;53.614;9.894;2023-02-01T11:08:16;42.15;;;5.95;;
21780;SDS011;52576;53.614;9.894;2023-02-01T11:14:59;36.72;;;4.45;;
21780;SDS011;52576;53.614;9.894;2023-02-01T11:17:18;33.45;;;4.05;;
21780;SDS011;52576;53.614;9.894;2023-02-01T11:19:27;33.95;;;5.43;;
21780;SDS011;52576;53.614;9.894;2023-02-01T11:21:31;36.92;;;4.93;;
21780;SDS011;52576;53.614;9.894;2023-02-01T11:23:39;35.50;;;4.68;;
21780;SDS011;52576;53.614;9.894;2023-02-01T11:25:48;35.70;;;5.00;;
21780;SDS011;52576;53.614;9.894;2023-02-01T11:27:54;36.65;;;5.30;;
21780;SDS011;52576;53.614;9.894;2023-02-01T11:29:59;33.70;;;4.75;;
21780;SDS011;52576;53.614;9.894;2023-02-01T11:32:05;38.17;;;5.22;;
21780;SDS011;52576;53.614;9.894;2023-02-01T11:34:13;38.38;;;4.60;;
21780;SDS011;52576;53.614;9.894;2023-02-01T11:36:20;34.05;;;4.63;;
21780;SDS011;52576;53.614;9.894;2023-02-01T11:38:28;38.08;;;4.80;;
21780;SDS011;52576;53.614;9.894;2023-02-01T11:40:34;30.00;;;4.70;;
21780;SDS011;52576;53.614;9.894;2023-02-01T11:42:39;32.90;;;5.65;;
21780;SDS011;52576;53.614;9.894;2023-02-01T11:45:13;34.67;;;4.40;;
21780;SDS011;52576;53.614;9.894;2023-02-01T11:47:24;34.95;;;5.07;;
21780;SDS011;52576;53.614;9.894;2023-02-01T11:49:30;31.50;;;5.28;;
21780;SDS011;52576;53.614;9.894;2023-02-01T11:51:37;27.85;;;4.35;;
21780;SDS011;52576;53.614;9.894;2023-02-01T11:53:58;27.30;;;3.90;;
21780;SDS011;52576;53.614;9.894;2023-02-01T11:56:19;22.65;;;4.28;;
21780;SDS011;52576;53.614;9.894;2023-02-01T11:58:54;28.75;;;3.78;;
21780;SDS011;52576;53.614;9.894;2023-02-01T12:06:10;24.30;;;3.15;;
21780;SDS011;52576;53.614;9.894;2023-02-01T12:11:10;16.73;;;3.47;;
21780;SDS011;52576;53.614;9.894;2023-02-01T12:13:34;19.38;;;3.60;;
21780;SDS011;52576;53.614;9.894;2023-02-01T12:15:52;18.40;;;2.90;;
21780;SDS011;52576;53.614;9.894;2023-02-01T12:18:29;15.30;;;2.42;;
21780;SDS011;52576;53.614;9.894;2023-02-01T12:20:57;22.83;;;3.42;;
21780;SDS011;52576;53.614;9.894;2023-02-01T12:23:14;18.20;;;3.20;;
21780;SDS011;52576;53.614;9.894;2023-02-01T12:27:45;12.15;;;2.40;;
21780;SDS011;52576;53.614;9.894;2023-02-01T12:30:19;12.20;;;3.03;;
21780;SDS011;52576;53.614;9.894;2023-02-01T12:32:43;15.20;;;3.80;;
21780;SDS011;52576;53.614;9.894;2023-02-01T12:35:03;9.05;;;2.08;;
21780;SDS011;52576;53.614;9.894;2023-02-01T12:37:19;5.70;;;1.85;;
21780;SDS011;52576;53.614;9.894;2023-02-01T12:39:31;6.85;;;1.30;;
21780;SDS011;52576;53.614;9.894;2023-02-01T12:43:57;3.92;;;0.98;;
21780;SDS011;52576;53.614;9.894;2023-02-01T12:46:04;3.70;;;0.70;;
21780;SDS011;52576;53.614;9.894;2023-02-01T12:48:18;5.30;;;1.23;;
21780;SDS011;52576;53.614;9.894;2023-02-01T12:50:28;4.45;;;0.93;;
21780;SDS011;52576;53.614;9.894;2023-02-01T12:52:39;4.22;;;1.20;;
21780;SDS011;52576;53.614;9.894;2023-02-01T12:54:51;5.57;;;1.20;;
21780;SDS011;52576;53.614;9.894;2023-02-01T12:57:00;4.30;;;1.10;;
21780;SDS011;52576;53.614;9.894;2023-02-01T12:59:09;4.07;;;0.98;;